Chehalis, Washington
Current Conditions -  °F | °C
As of 2:55 PM on Friday 28 Nov 2014 (Local Time) from KCLS Reporting Station
Overcast Overcast  
Wind Chill: 39°   Ceiling: 2500
Heat Index: 45°   Visibility: 10mi
Dew Point: 43°   Wind: 10mph
Humidity: 93%   Direction: 300°WNW
Pressure: 29.5"   Gusts: 17mph
Location:  46.66°N, 122.96°W
Report Text: KCLS 282255Z AUTO 30009G15KT 10SM SCT019 BKN025 OVC031 07/06 A2950 RMK AO2
Loading
Personal Weather Stations






























Interactive Weather Map New forecast layout! Learn more

10-Day Weather Forecast

Advertisements
Track Severe Weather on mobile